createdAt,value
2023-02-01T00:00:15.136Z,93.99
2023-02-01T00:00:47.611Z,93.99
2023-02-01T00:01:21.067Z,93.89
2023-02-01T00:01:53.508Z,93.89
2023-02-01T00:02:26.007Z,93.99
2023-02-01T00:02:58.494Z,93.79
2023-02-01T00:03:30.956Z,93.73
2023-02-01T00:04:04.067Z,93.83
2023-02-01T00:04:36.617Z,94.10
2023-02-01T00:05:09.079Z,94.72
2023-02-01T00:05:41.519Z,95.24
2023-02-01T00:06:14.035Z,95.44
2023-02-01T00:06:46.474Z,95.86
2023-02-01T00:07:19.008Z,95.86
2023-02-01T00:07:51.479Z,95.65
2023-02-01T00:08:23.914Z,95.65
2023-02-01T00:08:56.439Z,95.24
2023-02-01T00:09:29.575Z,95.07
2023-02-01T00:10:02.083Z,95.07
2023-02-01T00:10:34.540Z,95.28
2023-02-01T00:11:07.124Z,94.97
2023-02-01T00:11:39.600Z,94.87
2023-02-01T00:12:12.067Z,94.76
2023-02-01T00:12:45.310Z,95.07
2023-02-01T00:13:17.752Z,95.28
2023-02-01T00:13:50.278Z,95.59
2023-02-01T00:14:22.722Z,95.80
2023-02-01T00:14:55.198Z,96.31
2023-02-01T00:15:27.651Z,96.17
2023-02-01T00:16:00.158Z,96.58
2023-02-01T00:16:40.108Z,96.27
2023-02-01T00:17:20.198Z,96.48
2023-02-01T00:18:00.153Z,96.06
2023-02-01T00:18:32.775Z,95.65
2023-02-01T00:19:05.205Z,95.86
2023-02-01T00:19:38.381Z,95.86
2023-02-01T00:20:10.917Z,96.06
2023-02-01T00:20:43.410Z,96.48
2023-02-01T00:21:15.911Z,96.58
2023-02-01T00:21:48.454Z,96.79
2023-02-01T00:22:20.967Z,96.79
2023-02-01T00:22:53.441Z,96.58
2023-02-01T00:23:26.244Z,96.27
2023-02-01T00:23:58.676Z,95.96
2023-02-01T00:24:31.138Z,95.54
2023-02-01T00:25:04.548Z,95.86
2023-02-01T00:25:37.004Z,96.06
2023-02-01T00:26:09.469Z,96.06
2023-02-01T00:26:42.151Z,96.48
2023-02-01T00:27:14.602Z,96.48
2023-02-01T00:27:47.070Z,96.17
2023-02-01T00:28:19.696Z,96.06
2023-02-01T00:28:52.143Z,95.86
2023-02-01T00:29:24.582Z,95.75
2023-02-01T00:29:57.012Z,95.65
2023-02-01T00:30:29.462Z,95.65
2023-02-01T00:31:02.017Z,96.06
2023-02-01T00:31:41.510Z,96.37
2023-02-01T00:32:13.875Z,96.48
2023-02-01T00:32:46.265Z,97.00
2023-02-01T00:33:18.709Z,97.10
2023-02-01T00:33:51.152Z,97.20
2023-02-01T00:34:23.602Z,97.31
2023-02-01T00:34:56.044Z,97.52
2023-02-01T00:35:28.458Z,97.72
2023-02-01T00:36:00.887Z,97.62
2023-02-01T00:36:33.524Z,97.10
2023-02-01T00:37:05.956Z,96.89
2023-02-01T00:37:39.083Z,96.69
2023-02-01T00:38:11.508Z,96.79
2023-02-01T00:38:43.969Z,96.89
2023-02-01T00:39:16.397Z,96.58
2023-02-01T00:39:48.815Z,96.58
2023-02-01T00:40:21.566Z,96.37
2023-02-01T00:40:53.707Z,96.37
2023-02-01T00:41:26.127Z,97.20
2023-02-01T00:41:58.575Z,97.31
2023-02-01T00:42:30.985Z,97.10
2023-02-01T00:43:03.497Z,97.20
2023-02-01T00:43:35.984Z,97.72
2023-02-01T00:44:08.459Z,97.93
2023-02-01T00:44:41.129Z,97.93
2023-02-01T00:45:13.554Z,97.52
2023-02-01T00:45:46.038Z,97.52
2023-02-01T00:46:18.700Z,97.41
2023-02-01T00:46:51.098Z,97.31
2023-02-01T00:47:23.460Z,97.31
2023-02-01T00:47:55.991Z,97.00
2023-02-01T00:48:28.441Z,97.10
2023-02-01T00:49:00.900Z,97.31
2023-02-01T00:49:33.464Z,97.00
2023-02-01T00:50:06.013Z,97.10
2023-02-01T00:50:38.555Z,97.31
2023-02-01T00:51:11.017Z,97.52
2023-02-01T00:51:43.479Z,97.52
2023-02-01T00:52:15.937Z,97.10
2023-02-01T00:52:48.497Z,96.89
2023-02-01T00:53:20.983Z,97.10
2023-02-01T00:53:53.493Z,97.20
2023-02-01T00:54:26.024Z,97.20
2023-02-01T00:54:58.451Z,97.41
2023-02-01T00:55:30.858Z,97.31
2023-02-01T00:56:03.314Z,97.00
2023-02-01T00:56:35.737Z,96.89
2023-02-01T00:57:08.180Z,97.10
2023-02-01T00:57:40.594Z,97.31
2023-02-01T00:58:13.028Z,97.20
2023-02-01T00:58:46.072Z,96.89
2023-02-01T00:59:17.918Z,96.89
2023-02-01T00:59:50.344Z,97.10
2023-02-01T01:00:23.117Z,97.00
2023-02-01T01:00:55.255Z,96.89
2023-02-01T01:01:27.684Z,97.31
2023-02-01T01:02:00.233Z,97.72
2023-02-01T01:02:32.716Z,97.52
2023-02-01T01:03:05.155Z,97.31
2023-02-01T01:03:37.585Z,97.10
2023-02-01T01:04:10.027Z,97.10
2023-02-01T01:04:42.496Z,97.20
2023-02-01T01:05:14.940Z,97.10
2023-02-01T01:05:47.485Z,97.00
2023-02-01T01:06:19.958Z,96.89
2023-02-01T01:06:52.409Z,96.89
2023-02-01T01:07:25.004Z,97.00
2023-02-01T01:07:57.439Z,97.00
2023-02-01T01:08:29.909Z,96.58
2023-02-01T01:09:02.350Z,96.79
2023-02-01T01:09:34.814Z,97.10
2023-02-01T01:10:07.284Z,97.31
2023-02-01T01:10:39.762Z,97.20
2023-02-01T01:11:12.226Z,97.10
2023-02-01T01:11:44.650Z,96.89
2023-02-01T01:12:17.127Z,96.89
2023-02-01T01:12:49.591Z,96.48
2023-02-01T01:13:22.033Z,96.27
2023-02-01T01:13:54.500Z,96.37
2023-02-01T01:14:27.002Z,96.58
2023-02-01T01:14:59.440Z,97.20
2023-02-01T01:15:31.859Z,97.20
2023-02-01T01:16:04.387Z,97.00
2023-02-01T01:16:36.730Z,96.79
2023-02-01T01:17:09.197Z,96.79
2023-02-01T01:17:41.635Z,96.89
2023-02-01T01:18:14.073Z,97.00
2023-02-01T01:18:46.579Z,97.00
2023-02-01T01:19:19.059Z,96.58
2023-02-01T01:19:51.497Z,96.69
2023-02-01T01:20:24.003Z,96.79
2023-02-01T01:20:56.478Z,96.69
2023-02-01T01:21:28.964Z,96.89
2023-02-01T01:22:01.401Z,96.89
2023-02-01T01:22:33.890Z,96.79
2023-02-01T01:23:06.320Z,96.79
2023-02-01T01:23:38.761Z,97.00
2023-02-01T01:24:11.193Z,97.20
2023-02-01T01:24:43.625Z,97.41
2023-02-01T01:25:16.168Z,97.52
2023-02-01T01:25:48.607Z,97.41
2023-02-01T01:26:21.206Z,97.41
2023-02-01T01:26:53.540Z,97.10
2023-02-01T01:27:25.952Z,96.79
2023-02-01T01:27:58.437Z,96.69
2023-02-01T01:28:30.848Z,96.69
2023-02-01T01:29:03.299Z,96.48
2023-02-01T01:29:35.755Z,96.79
2023-02-01T01:30:08.206Z,97.20
2023-02-01T01:30:40.666Z,97.52
2023-02-01T01:31:13.185Z,97.31
2023-02-01T01:31:45.532Z,97.41
2023-02-01T01:32:17.912Z,97.20
2023-02-01T01:32:50.347Z,97.20
2023-02-01T01:33:22.794Z,97.00
2023-02-01T01:33:55.316Z,96.89
2023-02-01T01:34:27.717Z,96.89
2023-02-01T01:35:00.149Z,96.89
2023-02-01T01:35:32.617Z,97.20
2023-02-01T01:36:05.046Z,96.89
2023-02-01T01:36:37.458Z,96.79
2023-02-01T01:37:09.907Z,96.58
2023-02-01T01:37:42.367Z,96.27
2023-02-01T01:38:14.850Z,96.58
2023-02-01T01:38:47.281Z,96.89
2023-02-01T01:39:19.728Z,96.79
2023-02-01T01:39:52.163Z,96.48
2023-02-01T01:40:24.704Z,96.17
2023-02-01T01:40:57.144Z,95.75
2023-02-01T01:41:29.698Z,95.75
2023-02-01T01:42:02.157Z,96.06
2023-02-01T01:42:34.629Z,96.17
2023-02-01T01:43:07.077Z,96.17
2023-02-01T01:43:39.571Z,96.27
2023-02-01T01:44:12.011Z,95.86
2023-02-01T01:44:44.458Z,95.44
2023-02-01T01:45:16.894Z,95.54
2023-02-01T01:45:49.320Z,95.75
2023-02-01T01:46:21.892Z,95.86
2023-02-01T01:46:54.361Z,95.86
2023-02-01T01:47:26.765Z,96.58
2023-02-01T01:47:59.209Z,96.48
2023-02-01T01:48:31.684Z,96.06
2023-02-01T01:49:04.098Z,95.75
2023-02-01T01:49:36.605Z,95.54
2023-02-01T01:50:09.069Z,95.65
2023-02-01T01:50:41.484Z,96.17
2023-02-01T01:51:13.932Z,96.23
2023-02-01T01:51:46.377Z,96.27
2023-02-01T01:52:18.835Z,96.06
2023-02-01T01:52:51.329Z,95.65
2023-02-01T01:53:23.751Z,95.75
2023-02-01T01:53:56.335Z,95.54
2023-02-01T01:54:28.820Z,95.14
2023-02-01T01:55:01.319Z,94.72
2023-02-01T01:55:33.885Z,94.82
2023-02-01T01:56:06.359Z,94.82
2023-02-01T01:56:38.816Z,94.93
2023-02-01T01:57:11.294Z,94.93
2023-02-01T01:57:43.726Z,95.03
2023-02-01T01:58:16.216Z,94.72
2023-02-01T01:58:48.642Z,94.62
2023-02-01T01:59:21.139Z,94.72
2023-02-01T01:59:53.640Z,95.24
2023-02-01T02:00:26.076Z,95.54
2023-02-01T02:00:58.552Z,95.75
2023-02-01T02:01:30.966Z,96.02
2023-02-01T02:02:03.628Z,95.81
2023-02-01T02:02:35.817Z,95.61
2023-02-01T02:03:08.264Z,95.40
2023-02-01T02:03:40.737Z,95.40
2023-02-01T02:04:13.182Z,95.03
2023-02-01T02:04:45.631Z,95.03
2023-02-01T02:05:18.097Z,94.51
2023-02-01T02:05:50.556Z,94.57
2023-02-01T02:06:23.035Z,94.78
2023-02-01T02:06:55.476Z,95.19
2023-02-01T02:07:27.927Z,94.89
2023-02-01T02:08:00.364Z,95.40
2023-02-01T02:08:32.799Z,96.02
2023-02-01T02:09:07.016Z,96.23
2023-02-01T02:09:38.600Z,95.50
2023-02-01T02:10:10.125Z,94.78
2023-02-01T02:10:42.569Z,94.06
2023-02-01T02:11:15.053Z,94.37
2023-02-01T02:11:47.486Z,95.19
2023-02-01T02:12:19.964Z,95.19
2023-02-01T02:12:52.426Z,94.78
2023-02-01T02:13:24.870Z,94.47
2023-02-01T02:13:57.281Z,94.37
2023-02-01T02:14:29.723Z,94.78
2023-02-01T02:15:02.218Z,94.98
2023-02-01T02:15:34.657Z,94.98
2023-02-01T02:16:07.129Z,94.78
2023-02-01T02:16:39.586Z,94.06
2023-02-01T02:17:12.055Z,93.54
2023-02-01T02:17:44.494Z,93.64
2023-02-01T02:18:16.932Z,94.37
2023-02-01T02:18:49.398Z,94.89
2023-02-01T02:19:21.897Z,93.85
2023-02-01T02:19:54.341Z,93.64
2023-02-01T02:20:26.767Z,93.33
2023-02-01T02:20:59.206Z,94.06
2023-02-01T02:21:31.643Z,94.89
2023-02-01T02:22:04.091Z,94.78
2023-02-01T02:22:36.529Z,94.68
2023-02-01T02:23:08.975Z,94.26
2023-02-01T02:23:41.490Z,93.85
2023-02-01T02:24:13.960Z,93.74
2023-02-01T02:24:46.387Z,94.06
2023-02-01T02:25:18.826Z,95.09
2023-02-01T02:25:51.315Z,94.78
2023-02-01T02:26:23.848Z,94.26
2023-02-01T02:26:56.223Z,94.16
2023-02-01T02:27:28.660Z,93.95
2023-02-01T02:28:01.110Z,93.74
2023-02-01T02:28:33.582Z,93.85
2023-02-01T02:29:06.084Z,93.54
2023-02-01T02:29:38.549Z,93.12
2023-02-01T02:30:10.985Z,93.02
2023-02-01T02:30:43.473Z,92.40
2023-02-01T02:31:15.945Z,92.61
2023-02-01T02:31:48.369Z,92.50
2023-02-01T02:32:20.830Z,92.40
2023-02-01T02:32:53.281Z,92.30
2023-02-01T02:33:25.758Z,92.71
2023-02-01T02:33:58.284Z,93.12
2023-02-01T02:34:30.775Z,94.26
2023-02-01T02:35:03.296Z,93.95
2023-02-01T02:35:35.677Z,93.54
2023-02-01T02:36:08.140Z,94.16
2023-02-01T02:36:40.564Z,93.85
2023-02-01T02:37:12.981Z,94.06
2023-02-01T02:37:45.431Z,93.64
2023-02-01T02:38:17.894Z,93.33
2023-02-01T02:38:50.346Z,93.54
2023-02-01T02:39:22.811Z,93.12
2023-02-01T02:39:55.280Z,92.81
2023-02-01T02:40:27.757Z,92.91
2023-02-01T02:41:00.192Z,92.71
2023-02-01T02:41:32.655Z,92.65
2023-02-01T02:42:05.101Z,92.50
2023-02-01T02:42:37.529Z,92.19
2023-02-01T02:43:09.948Z,92.91
2023-02-01T02:43:42.480Z,93.23
2023-02-01T02:44:14.900Z,93.54
2023-02-01T02:44:47.343Z,93.74
2023-02-01T02:45:19.786Z,93.43
2023-02-01T02:45:52.305Z,93.33
2023-02-01T02:46:24.662Z,93.33
2023-02-01T02:46:57.077Z,93.64
2023-02-01T02:47:29.532Z,93.54
2023-02-01T02:48:01.993Z,93.12
2023-02-01T02:48:34.428Z,93.23
2023-02-01T02:49:06.904Z,93.12
2023-02-01T02:49:39.346Z,93.43
2023-02-01T02:50:11.848Z,93.74
2023-02-01T02:50:44.358Z,93.95
2023-02-01T02:51:16.756Z,94.16
2023-02-01T02:51:49.229Z,94.16
2023-02-01T02:52:21.663Z,93.54
2023-02-01T02:52:54.126Z,94.47
2023-02-01T02:53:26.627Z,94.16
2023-02-01T02:53:59.067Z,93.74
2023-02-01T02:54:31.549Z,93.64
2023-02-01T02:55:04.015Z,93.12
2023-02-01T02:55:36.446Z,93.12
2023-02-01T02:56:08.931Z,93.12
2023-02-01T02:56:41.402Z,93.64
2023-02-01T02:57:13.839Z,94.16
2023-02-01T02:57:46.276Z,94.78
2023-02-01T02:58:18.746Z,94.68
2023-02-01T02:58:51.178Z,94.78
2023-02-01T02:59:23.597Z,94.68
2023-02-01T02:59:56.040Z,94.57
2023-02-01T03:00:28.465Z,94.78
2023-02-01T03:01:00.931Z,94.26
2023-02-01T03:01:33.322Z,93.85
2023-02-01T03:02:06.004Z,93.54
2023-02-01T03:02:38.483Z,94.16
2023-02-01T03:03:10.894Z,94.16
2023-02-01T03:03:43.433Z,94.06
2023-02-01T03:04:15.871Z,94.68
2023-02-01T03:04:48.296Z,94.57
2023-02-01T03:05:20.738Z,95.19
2023-02-01T03:05:53.191Z,95.40
2023-02-01T03:06:25.598Z,94.89
2023-02-01T03:06:58.146Z,94.47
2023-02-01T03:07:30.612Z,94.16
2023-02-01T03:08:03.033Z,93.74
2023-02-01T03:08:35.605Z,94.57
2023-02-01T03:09:08.084Z,95.29
2023-02-01T03:09:40.561Z,94.89
2023-02-01T03:10:13.015Z,94.06
2023-02-01T03:10:45.468Z,93.54
2023-02-01T03:11:17.900Z,93.23
2023-02-01T03:11:50.414Z,93.12
2023-02-01T03:12:22.866Z,92.91
2023-02-01T03:12:55.312Z,93.23
2023-02-01T03:13:27.758Z,93.64
2023-02-01T03:14:00.215Z,93.74
2023-02-01T03:14:32.752Z,94.37
2023-02-01T03:15:05.219Z,95.09
2023-02-01T03:15:37.717Z,95.19
2023-02-01T03:16:10.176Z,94.16
2023-02-01T03:16:42.642Z,93.64
2023-02-01T03:17:15.032Z,94.06
2023-02-01T03:17:47.515Z,95.09
2023-02-01T03:18:19.957Z,94.78
2023-02-01T03:18:52.377Z,93.95
2023-02-01T03:19:24.894Z,93.74
2023-02-01T03:19:57.401Z,93.85
2023-02-01T03:20:29.839Z,93.12
2023-02-01T03:21:02.296Z,92.91
2023-02-01T03:21:34.714Z,92.50
2023-02-01T03:22:07.151Z,92.50
2023-02-01T03:22:39.663Z,92.81
2023-02-01T03:23:12.070Z,93.33
2023-02-01T03:23:44.526Z,93.95
2023-02-01T03:24:16.994Z,93.64
2023-02-01T03:24:49.435Z,93.02
2023-02-01T03:25:21.932Z,93.43
2023-02-01T03:25:54.353Z,93.95
2023-02-01T03:26:26.847Z,93.43
2023-02-01T03:26:59.278Z,94.16
2023-02-01T03:27:31.739Z,94.37
2023-02-01T03:28:04.218Z,94.06
2023-02-01T03:28:36.633Z,93.85
2023-02-01T03:29:09.121Z,93.23
2023-02-01T03:29:41.612Z,92.81
2023-02-01T03:30:14.054Z,92.91
2023-02-01T03:30:46.525Z,92.71
2023-02-01T03:31:19.037Z,92.81
2023-02-01T03:31:51.420Z,92.91
2023-02-01T03:32:23.859Z,93.43
2023-02-01T03:32:56.285Z,92.81
2023-02-01T03:33:28.728Z,92.81
2023-02-01T03:34:01.171Z,93.33
2023-02-01T03:34:33.644Z,93.23
2023-02-01T03:35:06.103Z,92.81
2023-02-01T03:35:38.578Z,92.61
2023-02-01T03:36:11.012Z,92.50
2023-02-01T03:36:43.470Z,92.71
2023-02-01T03:37:15.902Z,92.40
2023-02-01T03:37:48.326Z,93.54
2023-02-01T03:38:20.752Z,93.74
2023-02-01T03:38:53.198Z,93.23
2023-02-01T03:39:25.731Z,92.81
2023-02-01T03:39:58.155Z,92.81
2023-02-01T03:40:30.611Z,93.23
2023-02-01T03:41:03.050Z,93.12
2023-02-01T03:41:35.551Z,92.91
2023-02-01T03:42:07.977Z,92.71
2023-02-01T03:42:40.441Z,92.91
2023-02-01T03:43:12.899Z,92.71
2023-02-01T03:43:45.329Z,92.40
2023-02-01T03:44:17.762Z,92.19
2023-02-01T03:44:50.225Z,92.61
2023-02-01T03:45:22.677Z,92.50
2023-02-01T03:45:55.164Z,93.02
2023-02-01T03:46:27.565Z,94.06
2023-02-01T03:47:00.003Z,94.57
2023-02-01T03:47:32.472Z,92.91
2023-02-01T03:48:04.946Z,92.61
2023-02-01T03:48:37.348Z,92.91
2023-02-01T03:49:09.787Z,93.54
2023-02-01T03:49:42.233Z,93.95
2023-02-01T03:50:14.703Z,93.12
2023-02-01T03:50:47.325Z,93.02
2023-02-01T03:51:19.815Z,92.81
2023-02-01T03:51:52.306Z,93.54
2023-02-01T03:52:24.670Z,93.74
2023-02-01T03:52:57.103Z,93.95
2023-02-01T03:53:29.529Z,93.95
2023-02-01T03:54:01.947Z,92.81
2023-02-01T03:54:34.387Z,92.91
2023-02-01T03:55:06.868Z,93.12
2023-02-01T03:55:39.275Z,93.74
2023-02-01T03:56:11.725Z,94.37
2023-02-01T03:56:44.188Z,93.43
2023-02-01T03:57:16.616Z,93.12
2023-02-01T03:57:49.043Z,92.81
2023-02-01T03:58:21.471Z,92.50
2023-02-01T03:58:53.892Z,92.30
2023-02-01T03:59:26.315Z,93.54
2023-02-01T03:59:58.787Z,93.74
2023-02-01T04:00:31.244Z,93.95
2023-02-01T04:01:03.751Z,93.64
2023-02-01T04:01:36.235Z,94.57
2023-02-01T04:02:08.626Z,95.09
2023-02-01T04:02:41.130Z,94.57
2023-02-01T04:03:13.536Z,94.47
2023-02-01T04:03:45.990Z,94.37
2023-02-01T04:04:18.475Z,94.37
2023-02-01T04:04:50.915Z,94.37
2023-02-01T04:05:23.378Z,94.06
2023-02-01T04:05:55.813Z,93.85
2023-02-01T04:06:28.223Z,93.54
2023-02-01T04:07:00.668Z,93.54
2023-02-01T04:07:33.154Z,93.74
2023-02-01T04:08:05.572Z,93.64
2023-02-01T04:08:37.980Z,93.54
2023-02-01T04:09:10.411Z,93.64
2023-02-01T04:09:42.903Z,93.95
2023-02-01T04:10:16.410Z,94.37
2023-02-01T04:10:47.813Z,94.47
2023-02-01T04:11:20.297Z,94.16
2023-02-01T04:11:52.726Z,93.54
2023-02-01T04:12:25.187Z,93.12
2023-02-01T04:12:57.646Z,93.02
2023-02-01T04:13:30.083Z,92.91
2023-02-01T04:14:02.515Z,93.43
2023-02-01T04:14:34.931Z,93.64
2023-02-01T04:15:07.382Z,93.54
2023-02-01T04:15:39.783Z,92.91
2023-02-01T04:16:12.243Z,92.61
2023-02-01T04:16:44.743Z,93.02
2023-02-01T04:17:17.124Z,93.64
2023-02-01T04:17:49.561Z,94.37
2023-02-01T04:18:22.036Z,94.26
2023-02-01T04:18:54.417Z,93.95
2023-02-01T04:19:26.906Z,94.16
2023-02-01T04:19:59.416Z,94.37
2023-02-01T04:20:31.876Z,93.95
2023-02-01T04:21:04.323Z,93.33
2023-02-01T04:21:36.846Z,94.06
2023-02-01T04:22:09.303Z,93.54
2023-02-01T04:22:41.720Z,93.74
2023-02-01T04:23:14.180Z,94.06
2023-02-01T04:23:46.644Z,94.06
2023-02-01T04:24:19.216Z,94.06
2023-02-01T04:24:51.672Z,94.06
2023-02-01T04:25:24.151Z,94.06
2023-02-01T04:25:56.569Z,93.74
2023-02-01T04:26:29.018Z,93.54
2023-02-01T04:27:01.436Z,93.33
2023-02-01T04:27:33.881Z,93.33
2023-02-01T04:28:06.315Z,93.95
2023-02-01T04:28:38.744Z,94.26
2023-02-01T04:29:11.184Z,94.37
2023-02-01T04:29:43.672Z,94.68
2023-02-01T04:30:16.076Z,93.74
2023-02-01T04:30:48.567Z,93.64
2023-02-01T04:31:21.073Z,93.74
2023-02-01T04:31:53.481Z,93.95
2023-02-01T04:32:25.817Z,94.16
2023-02-01T04:32:58.282Z,94.57
2023-02-01T04:33:31.343Z,94.89
2023-02-01T04:34:03.807Z,95.19
2023-02-01T04:34:36.211Z,94.68
2023-02-01T04:35:08.757Z,93.85
2023-02-01T04:35:41.211Z,93.85
2023-02-01T04:36:13.686Z,93.85
2023-02-01T04:36:47.281Z,93.74
2023-02-01T04:37:18.605Z,93.85
2023-02-01T04:37:51.073Z,93.64
2023-02-01T04:38:23.521Z,93.33
2023-02-01T04:38:55.984Z,93.43
2023-02-01T04:39:28.441Z,94.26
2023-02-01T04:40:00.896Z,95.40
2023-02-01T04:40:33.353Z,95.92
2023-02-01T04:41:05.809Z,96.02
2023-02-01T04:41:38.267Z,95.19
2023-02-01T04:42:10.732Z,94.37
2023-02-01T04:42:43.235Z,94.47
2023-02-01T04:43:15.753Z,95.09
2023-02-01T04:43:48.197Z,95.09
2023-02-01T04:44:20.651Z,94.68
2023-02-01T04:44:53.079Z,95.61
2023-02-01T04:45:25.499Z,95.29
2023-02-01T04:45:57.948Z,95.29
2023-02-01T04:46:30.412Z,95.50
2023-02-01T04:47:02.867Z,94.89
2023-02-01T04:47:35.313Z,94.16
2023-02-01T04:48:07.745Z,94.47
2023-02-01T04:48:40.170Z,94.89
2023-02-01T04:49:12.694Z,94.98
2023-02-01T04:49:45.180Z,95.29
2023-02-01T04:50:17.627Z,95.50
2023-02-01T04:50:50.035Z,95.29
2023-02-01T04:51:22.541Z,95.71
2023-02-01T04:51:55.027Z,95.81
2023-02-01T04:52:27.495Z,95.61
2023-02-01T04:52:59.948Z,95.29
2023-02-01T04:53:32.402Z,95.09
2023-02-01T04:54:04.913Z,94.78
2023-02-01T04:54:37.330Z,95.61
2023-02-01T04:55:09.805Z,96.02
2023-02-01T04:55:42.263Z,96.33
2023-02-01T04:56:14.720Z,96.23
2023-02-01T04:56:47.179Z,95.40
2023-02-01T04:57:19.674Z,95.09
2023-02-01T04:57:52.150Z,94.89
2023-02-01T04:58:24.665Z,95.40
2023-02-01T04:58:57.155Z,95.61
2023-02-01T04:59:29.584Z,95.29
2023-02-01T05:00:02.044Z,94.89
2023-02-01T05:00:34.491Z,94.98
2023-02-01T05:01:06.968Z,96.02
2023-02-01T05:01:39.495Z,96.23
2023-02-01T05:02:11.908Z,96.23
2023-02-01T05:02:44.347Z,95.71
2023-02-01T05:03:16.822Z,95.29
2023-02-01T05:03:49.292Z,95.09
2023-02-01T05:04:21.805Z,95.29
2023-02-01T05:04:54.234Z,94.98
2023-02-01T05:05:26.631Z,94.57
2023-02-01T05:05:59.044Z,94.89
2023-02-01T05:06:31.749Z,95.19
2023-02-01T05:07:04.260Z,95.50
2023-02-01T05:07:36.715Z,96.12
2023-02-01T05:08:09.178Z,95.81
2023-02-01T05:08:41.635Z,95.40
2023-02-01T05:09:14.138Z,95.61
2023-02-01T05:09:46.597Z,95.50
2023-02-01T05:10:19.011Z,95.09
2023-02-01T05:10:51.445Z,95.40
2023-02-01T05:11:23.867Z,95.92
2023-02-01T05:11:56.319Z,95.50
2023-02-01T05:12:28.751Z,95.29
2023-02-01T05:13:01.236Z,95.40
2023-02-01T05:13:33.672Z,96.12
2023-02-01T05:14:06.218Z,95.29
2023-02-01T05:14:38.736Z,94.37
2023-02-01T05:15:11.160Z,95.09
2023-02-01T05:15:43.667Z,94.89
2023-02-01T05:16:16.156Z,94.26
2023-02-01T05:16:48.653Z,94.37
2023-02-01T05:17:21.155Z,94.26
2023-02-01T05:17:53.594Z,94.68
2023-02-01T05:18:26.051Z,95.19
2023-02-01T05:18:58.511Z,94.98
2023-02-01T05:19:31.257Z,94.57
2023-02-01T05:20:03.740Z,94.98
2023-02-01T05:20:36.275Z,95.19
2023-02-01T05:21:08.734Z,96.12
2023-02-01T05:21:41.198Z,96.33
2023-02-01T05:22:13.641Z,96.44
2023-02-01T05:22:46.116Z,96.02
2023-02-01T05:23:18.558Z,96.02
2023-02-01T05:23:51.008Z,95.40
2023-02-01T05:24:23.452Z,96.23
2023-02-01T05:24:55.877Z,96.54
2023-02-01T05:25:28.347Z,96.85
2023-02-01T05:26:00.769Z,96.75
2023-02-01T05:26:33.265Z,96.12
2023-02-01T05:27:05.690Z,95.92
2023-02-01T05:27:38.090Z,96.12
2023-02-01T05:28:10.559Z,96.12
2023-02-01T05:28:43.844Z,95.92
2023-02-01T05:29:16.296Z,96.02
2023-02-01T05:29:48.744Z,95.92
2023-02-01T05:30:21.435Z,95.61
2023-02-01T05:30:54.342Z,95.61
2023-02-01T05:31:27.023Z,96.02
2023-02-01T05:32:05.251Z,96.23
2023-02-01T05:32:31.917Z,95.81
2023-02-01T05:33:04.309Z,95.71
2023-02-01T05:33:36.754Z,95.40
2023-02-01T05:34:09.335Z,95.29
2023-02-01T05:34:46.010Z,95.09
2023-02-01T05:35:18.658Z,95.40
2023-02-01T05:35:51.097Z,96.12
2023-02-01T05:36:23.790Z,96.33
2023-02-01T05:36:56.534Z,96.23
2023-02-01T05:37:28.992Z,95.19
2023-02-01T05:38:01.499Z,94.57
2023-02-01T05:38:33.959Z,94.98
2023-02-01T05:39:06.429Z,95.19
2023-02-01T05:39:38.855Z,95.40
2023-02-01T05:40:11.309Z,94.98
2023-02-01T05:40:43.805Z,95.09
2023-02-01T05:41:16.257Z,94.98
2023-02-01T05:41:48.706Z,95.29
2023-02-01T05:42:21.267Z,95.81
2023-02-01T05:42:53.696Z,96.33
2023-02-01T05:43:26.154Z,96.23
2023-02-01T05:43:58.704Z,96.33
2023-02-01T05:44:31.163Z,95.92
2023-02-01T05:45:03.678Z,94.98
2023-02-01T05:45:36.157Z,95.09
2023-02-01T05:46:08.772Z,95.40
2023-02-01T05:46:41.185Z,95.29
2023-02-01T05:47:13.639Z,94.68
2023-02-01T05:47:46.476Z,94.57
2023-02-01T05:48:18.956Z,95.71
2023-02-01T05:48:51.561Z,95.40
2023-02-01T05:49:24.097Z,95.19
2023-02-01T05:49:56.579Z,95.09
2023-02-01T05:50:29.021Z,95.61
2023-02-01T05:51:01.460Z,95.71
2023-02-01T05:51:34.301Z,95.61
2023-02-01T05:52:06.793Z,95.92
2023-02-01T05:52:39.269Z,96.64
2023-02-01T05:53:11.731Z,96.75
2023-02-01T05:53:44.480Z,97.16
2023-02-01T05:54:16.957Z,97.26
2023-02-01T05:54:49.448Z,96.75
2023-02-01T05:55:22.036Z,96.02
2023-02-01T05:55:54.506Z,96.44
2023-02-01T05:56:26.892Z,95.92
2023-02-01T05:56:59.380Z,95.50
2023-02-01T05:57:31.830Z,95.29
2023-02-01T05:58:04.356Z,95.81
2023-02-01T05:58:36.808Z,95.50
2023-02-01T05:59:09.224Z,96.02
2023-02-01T05:59:41.664Z,96.23
2023-02-01T06:00:14.112Z,96.95
2023-02-01T06:00:46.691Z,96.64
2023-02-01T06:01:19.283Z,96.23
2023-02-01T06:01:51.743Z,95.81
2023-02-01T06:02:24.213Z,95.40
2023-02-01T06:02:56.688Z,95.50
2023-02-01T06:03:29.170Z,94.78
2023-02-01T06:04:01.631Z,94.89
2023-02-01T06:04:34.050Z,95.09
2023-02-01T06:05:06.549Z,95.29
2023-02-01T06:05:39.839Z,95.81
2023-02-01T06:06:12.460Z,96.02
2023-02-01T06:06:45.243Z,96.44
2023-02-01T06:07:17.785Z,95.29
2023-02-01T06:07:50.254Z,95.71
2023-02-01T06:08:22.826Z,96.02
2023-02-01T06:08:55.367Z,94.89
2023-02-01T06:09:27.829Z,94.68
2023-02-01T06:10:00.338Z,94.68
2023-02-01T06:10:32.914Z,95.50
2023-02-01T06:11:05.622Z,95.40
2023-02-01T06:11:38.112Z,95.81
2023-02-01T06:12:13.770Z,96.23
2023-02-01T06:12:46.630Z,96.44
2023-02-01T06:13:19.261Z,96.12
2023-02-01T06:13:51.716Z,95.61
2023-02-01T06:14:24.171Z,95.40
2023-02-01T06:14:56.624Z,95.09
2023-02-01T06:15:29.119Z,94.89
2023-02-01T06:16:01.633Z,95.50
2023-02-01T06:16:33.984Z,95.19
2023-02-01T06:17:06.447Z,94.98
2023-02-01T06:17:38.952Z,94.37
2023-02-01T06:18:11.438Z,94.37
2023-02-01T06:18:43.971Z,94.78
2023-02-01T06:19:16.438Z,94.98
2023-02-01T06:19:48.862Z,94.78
2023-02-01T06:20:21.544Z,94.89
2023-02-01T06:20:53.790Z,96.02
2023-02-01T06:21:26.270Z,95.92
2023-02-01T06:21:58.738Z,96.23
2023-02-01T06:22:31.177Z,96.75
2023-02-01T06:23:03.624Z,95.71
2023-02-01T06:23:36.078Z,95.50
2023-02-01T06:24:08.545Z,95.40
2023-02-01T06:24:40.975Z,95.19
2023-02-01T06:25:13.407Z,94.98
2023-02-01T06:25:45.839Z,95.19
2023-02-01T06:26:18.302Z,95.40
2023-02-01T06:26:51.197Z,95.61
2023-02-01T06:27:23.597Z,95.71
2023-02-01T06:27:56.072Z,96.23
2023-02-01T06:28:35.674Z,96.33
2023-02-01T06:29:08.141Z,95.71
2023-02-01T06:29:40.640Z,95.40
2023-02-01T06:30:13.108Z,95.92
2023-02-01T06:30:45.927Z,95.40
2023-02-01T06:31:18.397Z,95.19
2023-02-01T06:31:50.814Z,94.98
2023-02-01T06:32:23.259Z,94.57
2023-02-01T06:32:55.712Z,94.57
2023-02-01T06:33:28.193Z,94.47
2023-02-01T06:34:00.670Z,94.47
2023-02-01T06:34:33.114Z,94.47
2023-02-01T06:35:06.308Z,94.37
2023-02-01T06:35:39.710Z,95.50
2023-02-01T06:36:11.612Z,96.54
2023-02-01T06:36:44.561Z,96.23
2023-02-01T06:37:17.004Z,95.92
2023-02-01T06:37:49.527Z,95.29
2023-02-01T06:38:21.958Z,95.09
2023-02-01T06:38:54.656Z,94.78
2023-02-01T06:39:27.103Z,94.98
2023-02-01T06:39:59.578Z,95.61
2023-02-01T06:40:32.433Z,95.71
2023-02-01T06:41:04.920Z,94.89
2023-02-01T06:41:48.776Z,95.40
2023-02-01T06:42:22.387Z,95.71
2023-02-01T06:42:54.933Z,96.08
2023-02-01T06:43:27.454Z,96.33
2023-02-01T06:43:59.947Z,95.56
2023-02-01T06:44:32.487Z,95.77
2023-02-01T06:45:05.098Z,95.56
2023-02-01T06:45:37.635Z,95.40
2023-02-01T06:46:10.182Z,95.29
2023-02-01T06:46:42.818Z,95.29
2023-02-01T06:47:15.314Z,95.50
2023-02-01T06:47:47.824Z,95.40
2023-02-01T06:48:20.325Z,94.78
2023-02-01T06:48:52.810Z,94.89
2023-02-01T06:49:25.273Z,95.36
2023-02-01T06:49:57.814Z,95.29
2023-02-01T06:50:30.315Z,94.98
2023-02-01T06:51:02.922Z,94.57
2023-02-01T06:51:35.481Z,94.47
2023-02-01T06:52:08.069Z,94.47
2023-02-01T06:52:40.684Z,95.77
2023-02-01T06:53:13.357Z,96.39
2023-02-01T06:53:45.863Z,96.59
2023-02-01T06:54:18.443Z,95.98
2023-02-01T06:54:51.068Z,95.77
2023-02-01T06:55:23.538Z,96.59
2023-02-01T06:56:03.805Z,96.08
2023-02-01T06:56:36.304Z,95.46
2023-02-01T06:57:08.810Z,95.56
2023-02-01T06:57:41.268Z,95.36
2023-02-01T06:58:13.714Z,95.15
2023-02-01T06:58:46.225Z,94.94
2023-02-01T06:59:18.692Z,95.56